Time;durP1;ratioP1;P1;durP2;ratioP2;P2;SDS_P1;SDS_P2;PMS_P1;PMS_P2;Temp;Humidity;BMP_temperature;BMP_pressure;BME280_temperature;BME280_humidity;BME280_pressure;Samples;Min_cycle;Max_cycle;Signal;HPM_P1;HPM_P2
2022/01/29 00:00:35;;;;;;;30.67;23.40;;;9.20;71.30;;;12.14;53.92;102415.91;5055072;28;20189;-59
2022/01/29 00:03:04;;;;;;;33.93;24.10;;;9.20;71.10;;;12.18;53.68;102419.06;5052335;28;20203;-60
2022/01/29 00:05:32;;;;;;;34.90;25.00;;;9.20;71.60;;;12.18;53.69;102417.28;5053968;28;20288;-60
2022/01/29 00:07:59;;;;;;;32.63;24.10;;;9.20;71.60;;;12.21;53.92;102413.50;5054867;28;20297;-60
2022/01/29 00:10:27;;;;;;;33.77;22.33;;;9.20;71.70;;;12.21;53.75;102406.44;5054640;28;20271;-60
2022/01/29 00:12:54;;;;;;;32.20;24.43;;;9.30;71.50;;;12.23;53.71;102390.44;5052910;28;20198;-60
2022/01/29 00:15:21;;;;;;;34.83;25.70;;;9.30;71.70;;;12.24;54.06;102389.47;5053705;28;20194;-61
2022/01/29 00:17:49;;;;;;;33.10;24.90;;;9.30;71.60;;;12.21;54.01;102380.03;5054838;28;20217;-62
2022/01/29 00:20:17;;;;;;;39.37;26.77;;;9.30;71.70;;;12.23;54.30;102378.06;5052764;28;20204;-59
2022/01/29 00:22:45;;;;;;;41.53;28.77;;;9.40;72.00;;;12.14;54.87;102373.66;5053814;28;20186;-60
2022/01/29 00:25:12;;;;;;;37.77;27.87;;;9.40;72.20;;;12.13;54.90;102363.25;5054347;28;20289;-61
2022/01/29 00:27:40;;;;;;;44.97;28.13;;;9.40;72.20;;;12.10;55.08;102356.44;5054475;28;20224;-61
2022/01/29 00:30:10;;;;;;;39.23;27.97;;;9.40;72.30;;;12.11;54.97;102358.13;5054409;28;20251;-58
2022/01/29 00:32:38;;;;;;;41.07;27.90;;;9.40;72.30;;;12.14;55.02;102355.19;5054299;28;20616;-61
2022/01/29 00:35:06;;;;;;;41.03;28.97;;;9.40;73.10;;;12.20;54.81;102357.25;5054127;28;20212;-60
2022/01/29 00:37:34;;;;;;;41.73;29.90;;;9.30;72.50;;;12.22;54.75;102344.72;5040859;28;20602;-61
2022/01/29 00:40:05;;;;;;;41.83;27.53;;;9.30;72.60;;;12.22;54.49;102339.44;5037682;28;20217;-63
2022/01/29 00:42:33;;;;;;;41.70;27.83;;;9.30;72.50;;;12.27;54.55;102330.25;5037481;28;20595;-62
2022/01/29 00:45:00;;;;;;;39.70;27.03;;;9.30;72.70;;;12.30;54.90;102329.97;5035711;28;20213;-61
2022/01/29 00:47:29;;;;;;;41.33;29.73;;;9.30;72.70;;;12.31;54.84;102318.44;5034865;28;20200;-62
2022/01/29 00:49:56;;;;;;;41.70;28.97;;;9.40;72.80;;;12.33;54.74;102321.75;5033414;28;20229;-56
2022/01/29 00:52:23;;;;;;;44.93;28.50;;;9.40;72.80;;;12.33;54.78;102308.56;5053739;28;20629;-59
2022/01/29 00:54:52;;;;;;;49.10;30.63;;;9.40;73.00;;;12.32;54.84;102306.88;5054094;28;20208;-61
2022/01/29 00:57:20;;;;;;;45.80;31.97;;;9.40;73.00;;;12.29;55.17;102302.72;5052816;28;20214;-60
2022/01/29 00:59:47;;;;;;;41.23;28.97;;;9.40;73.20;;;12.24;55.47;102303.16;5054010;28;20189;-57
2022/01/29 01:02:14;;;;;;;48.70;32.33;;;9.40;73.10;;;12.23;55.33;102300.69;5053587;28;20240;-59
2022/01/29 01:04:42;;;;;;;45.53;30.43;;;9.40;73.40;;;12.22;55.39;102283.16;5052221;28;20309;-62
2022/01/29 01:07:10;;;;;;;47.60;31.03;;;9.40;73.50;;;12.22;55.46;102291.94;5044754;28;20209;-61
2022/01/29 01:09:37;;;;;;;45.57;31.50;;;9.40;73.70;;;12.22;55.83;102280.53;5033594;28;20219;-55
2022/01/29 01:12:08;;;;;;;40.37;29.80;;;9.40;73.90;;;12.26;55.73;102283.72;5042914;28;20741;-61
2022/01/29 01:14:36;;;;;;;46.93;32.20;;;9.40;74.00;;;12.27;55.81;102278.28;5052112;28;20614;-59
2022/01/29 01:17:04;;;;;;;51.53;32.30;;;9.40;74.20;;;12.29;55.85;102272.88;5052581;28;20193;-58
2022/01/29 01:19:31;;;;;;;38.80;28.07;;;9.40;74.50;;;12.30;55.79;102269.25;5054758;28;20186;-61
2022/01/29 01:21:59;;;;;;;49.33;32.53;;;9.40;74.30;;;12.32;55.84;102268.13;5053737;28;20224;-60
2022/01/29 01:24:26;;;;;;;49.30;33.73;;;9.40;74.60;;;12.35;55.80;102267.81;5051689;28;20296;-57
2022/01/29 01:26:54;;;;;;;47.90;32.23;;;9.40;75.20;;;12.35;56.01;102267.00;5052190;28;20292;-58
2022/01/29 01:29:22;;;;;;;51.33;31.03;;;9.40;75.40;;;12.37;56.07;102254.47;5053367;28;20293;-58
2022/01/29 01:31:50;;;;;;;47.03;33.13;;;9.40;75.50;;;12.37;56.25;102254.47;5053273;28;20186;-59
2022/01/29 01:34:20;;;;;;;52.80;30.43;;;9.40;75.50;;;12.35;56.32;102248.50;5052698;28;20233;-58
2022/01/29 01:36:54;;;;;;;44.50;31.10;;;9.40;75.60;;;12.36;56.17;102247.53;5053035;28;20194;-59
2022/01/29 01:39:26;;;;;;;47.47;31.73;;;9.40;75.80;;;12.35;56.81;102240.59;5051915;28;20195;-58
2022/01/29 01:41:59;;;;;;;47.60;31.80;;;9.40;76.00;;;12.34;56.53;102229.19;5053682;28;20291;-60
2022/01/29 01:44:34;;;;;;;46.67;31.87;;;9.40;76.10;;;12.30;56.58;102234.91;5053044;28;20276;-62
2022/01/29 01:47:02;;;;;;;56.23;34.30;;;9.40;76.10;;;12.29;56.97;102228.81;5052163;28;20197;-57
2022/01/29 01:49:30;;;;;;;52.03;34.33;;;9.40;76.40;;;12.29;57.36;102228.81;5053304;28;20273;-58
2022/01/29 01:51:57;;;;;;;50.77;32.63;;;9.40;76.80;;;12.29;57.05;102225.34;5053485;28;20186;-59
2022/01/29 01:54:25;;;;;;;45.77;30.77;;;9.40;76.80;;;12.27;57.29;102214.91;5035273;28;20304;-56
2022/01/29 01:56:52;;;;;;;46.33;34.40;;;9.30;76.60;;;12.29;57.50;102212.97;5051255;28;20609;-61
2022/01/29 01:59:20;;;;;;;49.23;32.60;;;9.30;77.30;;;12.27;57.33;102188.53;5053069;28;20209;-58
2022/01/29 02:01:49;;;;;;;45.53;32.13;;;9.30;77.10;;;12.27;57.48;102180.59;5053002;28;20205;-60
2022/01/29 02:04:16;;;;;;;41.37;29.90;;;9.40;77.20;;;12.28;57.50;102178.81;5052802;28;20220;-62
2022/01/29 02:06:45;;;;;;;49.30;32.67;;;9.40;77.70;;;12.28;58.21;102162.97;5051787;28;20644;-59
2022/01/29 02:09:15;;;;;;;49.97;30.53;;;9.40;78.40;;;12.29;57.72;102164.63;5053236;28;20620;-60
2022/01/29 02:11:50;;;;;;;44.90;32.63;;;9.40;78.50;;;12.27;58.05;102151.56;5053013;28;20697;-62
2022/01/29 02:14:19;;;;;;;52.07;33.17;;;9.40;78.20;;;12.29;57.92;102154.06;5050877;28;20210;-61
2022/01/29 02:16:48;;;;;;;43.73;31.57;;;9.30;78.30;;;12.29;58.26;102148.78;5052825;28;20318;-59
2022/01/29 02:19:15;;;;;;;47.20;30.77;;;9.30;78.20;;;12.27;58.36;102135.72;5052677;28;20182;-60
2022/01/29 02:21:44;;;;;;;48.17;30.87;;;9.30;78.70;;;12.28;58.19;102145.31;5052550;28;20666;-59
2022/01/29 02:24:11;;;;;;;40.27;28.97;;;9.30;78.50;;;12.26;58.18;102128.81;5052248;28;20324;-61
2022/01/29 02:26:39;;;;;;;46.20;31.57;;;9.30;78.50;;;12.27;58.54;102132.25;5052559;28;20217;-58
2022/01/29 02:29:07;;;;;;;43.53;31.33;;;9.40;78.60;;;12.28;58.50;102136.56;5051017;28;20240;-60
2022/01/29 02:31:34;;;;;;;43.63;31.37;;;9.30;78.80;;;12.26;58.73;102120.88;5052610;28;20650;-62
2022/01/29 02:34:04;;;;;;;49.20;30.90;;;9.40;78.90;;;12.23;58.64;102122.03;5052451;28;20213;-59
2022/01/29 02:36:32;;;;;;;47.33;32.03;;;9.40;78.90;;;12.22;59.13;102115.06;5052951;28;20197;-62
2022/01/29 02:39:00;;;;;;;49.70;31.57;;;9.30;79.20;;;12.21;59.16;102113.41;5052823;28;20220;-61
2022/01/29 02:41:28;;;;;;;41.63;30.40;;;9.30;79.40;;;12.21;59.33;102110.78;5052918;28;20190;-61
2022/01/29 02:44:00;;;;;;;43.20;30.07;;;9.30;79.70;;;12.20;59.25;102117.03;5052403;28;20290;-61
2022/01/29 02:46:31;;;;;;;42.20;29.17;;;9.30;79.60;;;12.22;59.34;102107.16;5052351;28;20200;-60
2022/01/29 02:48:58;;;;;;;44.73;31.57;;;9.30;79.80;;;12.22;59.45;102107.16;5054953;28;20229;-62
2022/01/29 02:51:26;;;;;;;46.23;30.97;;;9.30;79.90;;;12.22;59.28;102104.50;5056244;28;20272;-61
2022/01/29 02:53:53;;;;;;;42.27;29.30;;;9.30;80.00;;;12.23;59.47;102095.63;5055590;28;20248;-61
2022/01/29 02:56:22;;;;;;;47.43;30.80;;;9.30;79.90;;;12.26;59.63;102096.28;5056123;28;20269;-59
2022/01/29 02:58:49;;;;;;;41.80;29.93;;;9.30;80.30;;;12.23;59.69;102082.41;5056383;28;20273;-61
2022/01/29 03:01:19;;;;;;;47.23;31.40;;;9.30;80.40;;;12.21;59.70;102079.09;5055707;28;20263;-58
2022/01/29 03:03:46;;;;;;;42.77;31.53;;;9.30;80.50;;;12.19;59.83;102075.75;5055219;28;20211;-59
2022/01/29 03:06:14;;;;;;;42.03;29.87;;;9.30;80.50;;;12.17;60.12;102077.72;5055975;28;20194;-61
2022/01/29 03:08:41;;;;;;;40.17;30.07;;;9.30;80.70;;;12.19;60.26;102059.94;5055882;28;20297;-61
2022/01/29 03:11:08;;;;;;;37.97;27.20;;;9.30;80.70;;;12.21;59.80;102068.56;5055967;28;20218;-62
2022/01/29 03:13:37;;;;;;;38.73;28.53;;;9.40;80.70;;;12.22;60.01;102042.97;5055494;28;20303;-59
2022/01/29 03:16:04;;;;;;;43.17;30.90;;;9.40;80.50;;;12.27;60.01;102045.13;5055606;28;20186;-59
2022/01/29 03:18:32;;;;;;;41.17;29.53;;;9.40;80.60;;;12.29;59.91;102044.00;5054386;28;20239;-61
2022/01/29 03:20:59;;;;;;;42.70;29.17;;;9.40;80.70;;;12.35;59.82;102037.28;5056000;28;20186;-61
2022/01/29 03:23:26;;;;;;;41.43;30.77;;;9.40;81.00;;;12.36;59.73;102045.03;5054368;28;20229;-61
2022/01/29 03:25:54;;;;;;;40.00;28.33;;;9.40;80.90;;;12.35;59.97;102039.94;5055762;28;20186;-61
2022/01/29 03:28:21;;;;;;;42.53;27.53;;;9.40;80.90;;;12.33;60.07;102020.78;5054581;28;20251;-60
2022/01/29 03:30:50;;;;;;;39.70;26.83;;;9.40;81.10;;;12.34;59.98;102025.91;5054565;28;20198;-62
2022/01/29 03:33:17;;;;;;;41.43;27.10;;;9.40;80.90;;;12.35;60.07;102026.72;5055162;28;20268;-62
2022/01/29 03:35:45;;;;;;;40.40;27.90;;;9.40;81.10;;;12.33;60.37;102012.84;5042049;28;20190;-60
2022/01/29 03:38:12;;;;;;;43.07;25.87;;;9.40;81.10;;;12.36;60.18;102007.28;5034393;28;20223;-60
2022/01/29 03:40:40;;;;;;;35.13;26.70;;;9.40;81.20;;;12.36;60.20;102002.00;5035675;28;20192;-57
2022/01/29 03:43:11;;;;;;;39.03;27.30;;;9.40;81.20;;;12.37;60.16;101995.72;5034986;28;20225;-60
2022/01/29 03:45:39;;;;;;;35.70;25.97;;;9.40;81.20;;;12.37;60.17;101990.44;5035502;28;20273;-60
2022/01/29 03:48:08;;;;;;;40.07;27.07;;;9.40;81.40;;;12.36;60.26;101980.88;5034477;28;20252;-61
2022/01/29 03:50:36;;;;;;;39.80;28.13;;;9.40;81.70;;;12.35;60.41;101969.47;5035812;28;20204;-59
2022/01/29 03:53:04;;;;;;;31.17;24.07;;;9.40;81.60;;;12.35;60.48;101974.75;5035144;28;20218;-61
2022/01/29 03:55:31;;;;;;;34.80;24.83;;;9.40;81.50;;;12.40;60.55;101976.94;5035353;28;20599;-62
2022/01/29 03:57:58;;;;;;;31.67;25.07;;;9.40;81.60;;;12.37;60.60;101982.50;5034600;28;20274;-61
2022/01/29 04:00:26;;;;;;;31.80;23.23;;;9.50;81.60;;;12.39;60.25;101985.81;5034984;28;20736;-60
2022/01/29 04:02:53;;;;;;;34.13;24.20;;;9.50;81.50;;;12.44;60.74;101978.28;5033280;28;20282;-60
2022/01/29 04:05:24;;;;;;;35.13;25.30;;;9.50;81.50;;;12.43;60.81;101972.16;5044740;28;20305;-58
2022/01/29 04:07:52;;;;;;;31.80;24.43;;;9.50;81.90;;;12.46;60.82;101971.84;5054672;28;20190;-58
2022/01/29 04:10:20;;;;;;;31.93;25.10;;;9.50;82.00;;;12.49;60.28;101963.63;5054541;28;20245;-61
2022/01/29 04:12:51;;;;;;;31.83;23.60;;;9.50;82.00;;;12.50;60.52;101951.25;5053999;28;20196;-61
2022/01/29 04:15:20;;;;;;;32.67;23.80;;;9.50;82.10;;;12.52;60.70;101957.19;5055852;28;20296;-61
2022/01/29 04:17:47;;;;;;;32.40;23.37;;;9.60;82.00;;;12.54;60.59;101958.69;5054798;28;20190;-58
2022/01/29 04:20:15;;;;;;;32.47;24.30;;;9.50;82.00;;;12.56;60.28;101950.59;5054458;28;20206;-61
2022/01/29 04:22:44;;;;;;;31.80;23.53;;;9.60;81.90;;;12.57;60.15;101955.75;5035420;28;20221;-60
2022/01/29 04:25:11;;;;;;;33.30;26.60;;;9.60;81.90;;;12.58;60.79;101956.56;5034522;28;20622;-60
2022/01/29 04:27:45;;;;;;;34.43;26.30;;;9.60;82.30;;;12.56;60.76;101947.97;5034420;28;20228;-61
2022/01/29 04:30:29;;;;;;;31.83;23.83;;;9.60;82.20;;;12.55;60.70;101949.78;5034703;28;20224;-61
2022/01/29 04:33:24;;;;;;;32.73;25.83;;;9.60;82.20;;;12.56;60.96;101930.31;5033896;28;20198;-61
2022/01/29 04:35:50;;;;;;;31.43;24.77;;;9.60;82.20;;;12.57;61.19;101934.63;5034110;28;20679;-59
2022/01/29 04:38:18;;;;;;;36.77;26.53;;;9.60;82.40;;;12.58;61.01;101919.59;5035543;28;20469;-60
2022/01/29 04:40:46;;;;;;;35.30;27.37;;;9.60;82.60;;;12.58;61.14;101924.88;5033609;28;20253;-61
2022/01/29 04:43:13;;;;;;;34.83;23.67;;;9.70;82.80;;;12.58;61.07;101925.69;5033666;28;20206;-60
2022/01/29 04:45:41;;;;;;;34.77;24.47;;;9.70;82.60;;;12.60;61.34;101925.56;5034156;28;20216;-61
2022/01/29 04:48:09;;;;;;;33.97;26.87;;;9.70;82.80;;;12.58;61.41;101922.22;5034278;28;20674;-61
2022/01/29 04:50:37;;;;;;;37.43;26.17;;;9.60;83.10;;;12.57;61.53;101915.31;5033770;28;20683;-61
2022/01/29 04:53:04;;;;;;;36.93;26.00;;;9.60;83.20;;;12.56;61.65;101908.34;5032320;28;20194;-60
2022/01/29 04:55:33;;;;;;;35.10;26.17;;;9.60;83.30;;;12.54;61.64;101920.91;5033835;28;20246;-60
2022/01/29 04:58:01;;;;;;;33.17;23.40;;;9.70;83.30;;;12.56;61.73;101918.91;5033858;28;20214;-60
2022/01/29 05:00:29;;;;;;;33.70;25.73;;;9.70;83.10;;;12.61;61.79;101916.63;5034244;28;20194;-60
2022/01/29 05:03:07;;;;;;;36.47;27.07;;;9.70;83.10;;;12.63;61.66;101917.31;5033157;28;20667;-60
2022/01/29 05:05:35;;;;;;;36.60;25.77;;;9.70;83.40;;;12.67;61.75;101916.03;5033745;28;20198;-61
2022/01/29 05:08:04;;;;;;;32.97;23.73;;;9.70;83.30;;;12.68;61.78;101922.94;5033765;28;20674;-61
2022/01/29 05:10:34;;;;;;;40.67;26.63;;;9.80;83.30;;;12.68;61.62;101915.84;5038760;28;20237;-61
2022/01/29 05:13:07;;;;;;;40.10;26.50;;;9.80;83.40;;;12.69;61.56;101906.91;5053081;28;20189;-59
2022/01/29 05:29:15;;;;;;;37.40;24.47;;;9.80;83.70;;;12.63;62.11;101882.97;5033503;28;20578;-59
2022/01/29 05:31:43;;;;;;;34.83;25.17;;;9.80;83.90;;;12.67;61.95;101881.69;5033409;28;20198;-61
2022/01/29 05:34:11;;;;;;;40.17;25.33;;;9.80;83.90;;;12.69;62.08;101871.78;5032993;28;20206;-60
2022/01/29 05:36:38;;;;;;;37.13;26.00;;;9.80;83.90;;;12.72;62.29;101874.06;5033325;28;20613;-60
2022/01/29 05:39:06;;;;;;;38.67;26.83;;;9.80;84.10;;;12.73;62.06;101857.25;5031406;28;20272;-59
2022/01/29 05:41:35;;;;;;;38.00;27.37;;;9.80;84.20;;;12.74;62.53;101861.56;5033134;28;20265;-59
2022/01/29 05:44:02;;;;;;;36.10;26.53;;;9.80;84.30;;;12.76;62.28;101863.06;5032671;28;20703;-60
2022/01/29 05:46:30;;;;;;;35.77;25.17;;;9.90;84.30;;;12.79;62.32;101865.34;5033102;28;20182;-59
2022/01/29 05:48:57;;;;;;;38.23;26.87;;;9.90;84.30;;;12.82;62.19;101864.19;5032356;28;20195;-62
2022/01/29 05:51:29;;;;;;;33.47;25.57;;;9.90;84.40;;;12.85;62.16;101855.97;5015722;28;20296;-61
2022/01/29 05:53:57;;;;;;;33.17;24.40;;;9.90;84.40;;;12.88;62.12;101855.66;5032044;28;20264;-59
2022/01/29 05:56:25;;;;;;;33.00;24.93;;;9.90;84.70;;;12.88;62.37;101840.59;5033296;28;20243;-60
2022/01/29 05:58:54;;;;;;;38.33;26.03;;;10.00;83.50;;;12.91;62.29;101839.44;5032828;28;20217;-59
2022/01/29 06:01:22;;;;;;;33.50;24.43;;;10.00;83.40;;;12.91;62.39;101834.16;5033171;28;20206;-61
2022/01/29 06:03:50;;;;;;;35.33;25.63;;;10.00;83.40;;;12.93;62.34;101837.50;5032775;28;20210;-60
2022/01/29 06:06:17;;;;;;;37.77;25.93;;;10.00;83.50;;;12.93;62.20;101832.22;5033116;28;20225;-61
2022/01/29 06:08:45;;;;;;;33.73;25.07;;;10.00;83.60;;;12.94;62.50;101823.28;5032848;28;20229;-57
2022/01/29 06:11:12;;;;;;;34.83;25.43;;;9.90;84.70;;;12.95;62.50;101814.38;5031703;28;20245;-61
2022/01/29 06:13:40;;;;;;;36.37;25.07;;;10.00;83.70;;;12.96;62.47;101810.72;5047478;28;20316;-61
2022/01/29 06:16:09;;;;;;;38.33;26.20;;;10.00;83.70;;;12.98;62.42;101811.38;5051749;28;20273;-58
2022/01/29 06:18:37;;;;;;;33.87;23.97;;;10.00;83.80;;;12.97;62.33;101807.09;5053093;28;20194;-59
2022/01/29 06:21:07;;;;;;;35.10;24.27;;;10.10;84.60;;;12.98;62.53;101811.38;5053673;28;20190;-59
2022/01/29 06:23:36;;;;;;;32.70;21.77;;;10.10;83.60;;;13.02;62.55;101818.00;5056260;28;20244;-61
2022/01/29 06:26:07;;;;;;;30.70;23.50;;;10.10;84.20;;;13.03;62.39;101802.97;5054161;28;20226;-60
2022/01/29 06:28:35;;;;;;;31.70;21.03;;;10.10;83.60;;;13.04;62.55;101800.16;5036980;28;20221;-60
2022/01/29 06:31:03;;;;;;;31.20;22.37;;;10.10;83.50;;;13.07;62.36;101821.03;5035462;28;20245;-61
2022/01/29 06:33:32;;;;;;;34.80;24.30;;;10.10;83.70;;;13.05;62.49;101799.16;5036149;28;20218;-59
2022/01/29 06:35:59;;;;;;;26.10;21.07;;;10.10;84.50;;;13.03;62.60;101795.03;5035469;28;20654;-59
2022/01/29 06:38:27;;;;;;;28.40;20.73;;;10.10;83.80;;;13.04;62.64;101797.53;5036465;28;20221;-57
2022/01/29 06:40:54;;;;;;;32.40;22.77;;;10.20;84.00;;;13.02;62.84;101786.31;5036208;28;20719;-60
2022/01/29 06:43:22;;;;;;;25.70;20.40;;;10.20;84.00;;;13.00;62.80;101777.72;5037031;28;20249;-59
2022/01/29 06:45:49;;;;;;;27.87;20.83;;;10.20;83.90;;;13.00;63.13;101780.34;5019078;28;20229;-58
2022/01/29 06:48:17;;;;;;;26.77;19.97;;;10.20;84.00;;;13.01;62.89;101774.06;5036437;28;20281;-62
2022/01/29 06:50:46;;;;;;;31.00;21.97;;;10.20;84.20;;;13.01;63.08;101760.00;5036176;28;20670;-62
2022/01/29 06:53:13;;;;;;;26.43;19.67;;;10.20;84.20;;;13.03;62.83;101763.31;5035105;28;20219;-56
2022/01/29 06:55:41;;;;;;;23.50;18.00;;;10.20;84.20;;;13.05;62.96;101753.44;5036105;28;20195;-60
2022/01/29 06:58:08;;;;;;;23.53;18.20;;;10.20;84.20;;;13.06;62.77;101749.81;5036031;28;20289;-60
2022/01/29 07:00:56;;;;;;;25.00;18.50;;;10.20;84.10;;;13.06;62.78;101757.75;5035859;28;20229;-60
2022/01/29 07:03:23;;;;;;;24.47;18.43;;;10.20;84.20;;;13.06;62.83;101753.28;5035481;28;20293;-61
2022/01/29 07:05:52;;;;;;;22.23;16.90;;;10.20;84.40;;;13.06;62.96;101753.28;5036133;28;20191;-61
2022/01/29 07:08:19;;;;;;;20.93;15.90;;;10.20;84.40;;;13.07;63.22;101744.38;5035979;28;20198;-60
2022/01/29 07:10:49;;;;;;;24.07;16.70;;;10.20;84.40;;;13.09;63.08;101742.38;5035729;28;20210;-62
2022/01/29 07:13:16;;;;;;;20.07;16.03;;;10.20;84.50;;;13.09;62.80;101758.25;5035134;28;20217;-56
2022/01/29 07:15:43;;;;;;;18.40;15.80;;;10.20;84.40;;;13.11;62.84;101748.34;5041345;28;20198;-60
2022/01/29 07:18:11;;;;;;;18.13;13.60;;;10.20;84.20;;;13.12;62.77;101752.59;5055515;28;20269;-60
2022/01/29 07:20:38;;;;;;;18.50;13.67;;;10.20;84.10;;;13.15;62.65;101752.28;5055443;28;20273;-61
2022/01/29 07:23:07;;;;;;;18.10;15.17;;;10.30;84.20;;;13.15;62.74;101752.28;5053852;28;20208;-59
2022/01/29 07:25:35;;;;;;;18.67;14.07;;;10.30;84.10;;;13.14;62.74;101748.00;5055502;28;20186;-61
2022/01/29 07:28:03;;;;;;;14.93;13.17;;;10.30;84.10;;;13.16;62.79;101761.88;5054224;28;20298;-61
2022/01/29 07:30:30;;;;;;;14.47;12.80;;;10.30;83.90;;;13.18;62.69;101751.97;5055203;28;20300;-61
2022/01/29 07:32:57;;;;;;;16.17;13.23;;;10.30;84.10;;;13.20;62.73;101752.63;5051075;28;20537;-62
2022/01/29 07:35:25;;;;;;;18.27;11.47;;;10.30;84.10;;;13.22;62.99;101753.28;5055530;28;20189;-58
2022/01/29 07:37:52;;;;;;;13.43;11.70;;;10.30;83.90;;;13.26;62.68;101757.25;5056146;28;20186;-60
2022/01/29 07:40:21;;;;;;;14.20;12.80;;;10.40;84.00;;;13.28;62.56;101763.19;5054418;28;20720;-61
2022/01/29 07:42:49;;;;;;;15.33;12.80;;;10.40;84.00;;;13.29;62.32;101762.19;5055086;28;20256;-61
2022/01/29 07:45:16;;;;;;;13.17;11.17;;;10.40;84.20;;;13.29;62.56;101754.25;5054004;28;20204;-61
2022/01/29 07:47:43;;;;;;;13.97;12.30;;;10.40;84.00;;;13.28;62.64;101752.63;5053285;28;20240;-62
2022/01/29 07:50:11;;;;;;;13.93;12.37;;;10.40;84.00;;;13.31;62.82;101760.19;5037759;28;20644;-61
2022/01/29 07:52:38;;;;;;;14.23;11.43;;;10.40;84.90;;;13.30;62.64;101755.91;5034529;28;20623;-62
2022/01/29 07:55:10;;;;;;;11.77;10.57;;;10.40;84.00;;;13.31;62.82;101757.56;5035081;28;20284;-61
2022/01/29 07:57:38;;;;;;;14.10;11.57;;;10.40;84.00;;;13.35;62.66;101756.25;5035186;28;20218;-61
2022/01/29 08:00:07;;;;;;;14.40;12.63;;;10.40;84.20;;;13.37;62.74;101759.53;5035168;28;20603;-59
2022/01/29 08:02:35;;;;;;;16.00;12.83;;;10.50;84.20;;;13.37;62.88;101762.19;5034192;28;20668;-60
2022/01/29 08:05:03;;;;;;;14.37;11.83;;;10.50;84.30;;;13.37;62.73;101756.91;5041719;28;20229;-60
2022/01/29 08:07:30;;;;;;;14.27;11.63;;;10.50;84.30;;;13.37;62.81;101756.06;5054363;28;20216;-60
2022/01/29 08:09:58;;;;;;;13.03;11.70;;;10.50;84.30;;;13.41;62.78;101752.09;5054509;28;20523;-59
2022/01/29 08:12:25;;;;;;;14.73;11.47;;;10.50;84.30;;;13.43;62.78;101747.47;5053933;28;20268;-61
2022/01/29 08:14:54;;;;;;;13.70;12.00;;;10.50;84.30;;;13.41;62.80;101750.28;5054445;28;20217;-59
2022/01/29 08:17:21;;;;;;;13.23;11.67;;;10.50;84.20;;;13.40;62.93;101746.00;5054260;28;20686;-62
2022/01/29 08:19:49;;;;;;;13.27;11.20;;;10.60;84.30;;;13.40;62.98;101748.63;5040204;28;20298;-60
2022/01/29 08:22:18;;;;;;;11.80;10.60;;;10.60;84.40;;;13.43;63.05;101735.06;5034331;28;20214;-61
2022/01/29 08:24:45;;;;;;;12.23;10.80;;;10.60;84.40;;;13.46;62.81;101729.44;5032075;28;20222;-60
2022/01/29 08:27:13;;;;;;;13.83;11.97;;;10.60;84.50;;;13.51;62.74;101734.22;5015509;28;20540;-60
2022/01/29 08:29:40;;;;;;;11.80;10.63;;;10.60;84.40;;;13.52;62.65;101723.50;5033996;28;20213;-60
2022/01/29 08:32:09;;;;;;;12.33;11.07;;;10.60;84.20;;;13.55;62.52;101717.00;5032792;28;20249;-62
2022/01/29 08:34:38;;;;;;;13.93;12.07;;;10.60;84.40;;;13.57;62.55;101705.25;5033366;28;20610;-60
2022/01/29 08:37:06;;;;;;;11.63;9.87;;;10.60;84.40;;;13.60;62.67;101708.59;5052063;28;20828;-62
2022/01/29 08:39:34;;;;;;;11.37;10.27;;;10.70;84.60;;;13.62;62.64;101706.59;5052164;28;20254;-61
2022/01/29 08:42:02;;;;;;;11.30;10.20;;;10.70;84.50;;;13.62;62.51;101696.03;5053564;28;20186;-62
2022/01/29 08:44:30;;;;;;;11.63;10.43;;;10.70;84.30;;;13.63;62.55;101693.19;5053160;28;20244;-62
2022/01/29 08:46:58;;;;;;;11.83;10.63;;;10.70;84.20;;;13.62;62.62;101688.09;5051867;28;20609;-61
2022/01/29 08:49:26;;;;;;;10.40;9.37;;;10.70;84.30;;;13.63;62.78;101682.59;5053351;28;20193;-61
2022/01/29 08:51:54;;;;;;;11.27;10.17;;;10.70;84.40;;;13.66;62.75;101681.44;5046700;28;20543;-61
2022/01/29 08:54:21;;;;;;;12.23;10.53;;;10.70;84.40;;;13.70;62.60;101678.28;5033262;28;20667;-60
2022/01/29 08:56:49;;;;;;;10.83;9.73;;;10.70;84.40;;;13.70;62.54;101672.16;5033462;28;20194;-61
2022/01/29 08:59:16;;;;;;;12.03;10.77;;;10.80;84.40;;;13.70;62.80;101672.16;5033464;28;20309;-60
2022/01/29 09:01:43;;;;;;;12.67;10.20;;;10.80;84.30;;;13.72;62.73;101676.28;5032805;28;20278;-60
2022/01/29 09:04:11;;;;;;;10.77;9.67;;;10.80;84.30;;;13.74;62.69;101673.47;5032416;28;20276;-59
2022/01/29 09:06:39;;;;;;;11.20;10.00;;;10.80;84.30;;;13.76;62.67;101667.03;5032067;28;20631;-61
2022/01/29 09:09:07;;;;;;;10.03;9.03;;;10.90;84.50;;;13.79;62.66;101665.81;5048440;28;20232;-61
2022/01/29 09:11:34;;;;;;;11.13;10.07;;;10.90;84.40;;;13.82;62.76;101670.78;5052995;28;20217;-61
2022/01/29 09:14:02;;;;;;;11.47;10.37;;;10.90;84.50;;;13.83;62.73;101657.41;5052642;28;20217;-60
2022/01/29 09:16:29;;;;;;;12.50;10.13;;;10.90;84.60;;;13.86;62.59;101648.28;5052792;28;20214;-57
2022/01/29 09:18:57;;;;;;;9.70;8.77;;;11.00;84.60;;;13.88;62.70;101643.66;5052194;28;20654;-58
2022/01/29 09:21:24;;;;;;;11.90;10.13;;;11.00;84.40;;;13.94;62.88;101661.47;5052897;28;20213;-61
2022/01/29 09:23:56;;;;;;;9.20;8.30;;;11.00;84.30;;;13.96;62.55;101656.81;5051905;28;20217;-61
2022/01/29 09:26:23;;;;;;;12.33;9.33;;;11.10;84.20;;;13.99;62.62;101661.78;5032744;28;20553;-60
2022/01/29 09:28:51;;;;;;;10.20;9.20;;;11.10;84.20;;;14.00;62.41;101644.91;5032481;28;20706;-61
2022/01/29 09:31:19;;;;;;;10.93;9.07;;;11.10;84.10;;;14.03;62.40;101637.44;5031926;28;20252;-61
2022/01/29 09:33:46;;;;;;;10.27;9.03;;;11.10;84.20;;;14.05;62.41;101640.72;5032271;28;20264;-60
2022/01/29 09:36:14;;;;;;;11.50;8.40;;;11.20;84.20;;;14.10;62.40;101637.53;5032651;28;20735;-62
2022/01/29 09:38:42;;;;;;;9.33;8.13;;;11.20;84.10;;;14.12;62.27;101609.09;5031690;28;20202;-62
2022/01/29 09:41:11;;;;;;;8.93;8.03;;;11.20;84.30;;;14.13;62.25;101613.38;5041258;28;20244;-59
2022/01/29 09:43:42;;;;;;;9.70;7.63;;;11.20;83.90;;;14.17;62.22;101617.31;5052111;28;20305;-62
2022/01/29 09:46:10;;;;;;;7.17;6.47;;;11.30;83.90;;;14.21;62.33;101608.03;5052957;28;20181;-61
2022/01/29 09:48:38;;;;;;;8.63;7.63;;;11.30;83.70;;;14.24;61.83;101605.00;5052681;28;20241;-61
2022/01/29 09:51:08;;;;;;;10.23;7.30;;;11.30;83.50;;;14.25;61.89;101610.16;5052884;28;20217;-59
2022/01/29 09:53:36;;;;;;;6.77;6.10;;;11.40;83.40;;;14.26;61.94;101601.19;5052480;28;20216;-60
2022/01/29 09:56:03;;;;;;;9.63;6.47;;;11.40;83.20;;;14.30;61.87;101607.00;5053076;28;20192;-61
2022/01/29 09:58:32;;;;;;;9.00;7.70;;;11.40;83.00;;;14.34;61.74;101597.69;5041397;28;20539;-61
2022/01/29 10:01:00;;;;;;;7.70;6.73;;;11.50;82.90;;;14.37;61.47;101594.69;5036529;28;20183;-61
2022/01/29 10:03:27;;;;;;;9.07;7.13;;;11.50;82.90;;;14.40;61.42;101591.69;5036154;28;20206;-62
2022/01/29 10:06:00;;;;;;;9.67;6.97;;;11.50;82.80;;;14.43;61.43;101591.31;5019937;28;20572;-61
2022/01/29 10:08:29;;;;;;;9.13;7.27;;;11.50;82.60;;;14.45;61.31;101578.75;5037357;28;20276;-60
2022/01/29 10:10:59;;;;;;;8.13;7.43;;;11.60;82.50;;;14.49;60.99;101573.88;5036624;28;20304;-61
2022/01/29 10:13:30;;;;;;;9.23;7.33;;;11.60;82.30;;;14.52;60.82;101560.28;5038908;28;20214;-61
2022/01/29 10:16:12;;;;;;;8.43;7.57;;;11.60;82.10;;;14.54;60.73;101556.47;5038339;28;20268;-60
2022/01/29 10:18:45;;;;;;;8.73;7.77;;;11.60;82.00;;;14.61;60.64;101541.50;5037052;28;20269;-61
2022/01/29 10:21:16;;;;;;;7.70;7.00;;;11.70;82.00;;;14.66;60.42;101548.91;5036647;28;20257;-60
2022/01/29 10:23:45;;;;;;;9.17;8.00;;;11.70;81.70;;;14.66;60.17;101533.81;5035721;28;20214;-59